createdAt,value
2019-05-21T00:00:28.082Z,14.60
2019-05-21T00:02:58.523Z,14.60
2019-05-21T00:05:29.225Z,14.60
2019-05-21T00:07:59.669Z,14.50
2019-05-21T00:10:30.395Z,14.60
2019-05-21T00:13:00.859Z,14.60
2019-05-21T00:15:31.396Z,14.50
2019-05-21T00:18:01.853Z,14.70
2019-05-21T00:20:32.509Z,14.60
2019-05-21T00:23:03.022Z,14.60
2019-05-21T00:25:33.726Z,14.60
2019-05-21T00:28:39.394Z,14.50
2019-05-21T00:32:03.457Z,14.60
2019-05-21T00:35:29.956Z,14.60
2019-05-21T00:38:54.631Z,14.50
2019-05-21T00:41:59.932Z,14.40
2019-05-21T00:44:36.942Z,14.50
2019-05-21T00:47:09.590Z,14.50
2019-05-21T00:49:40.132Z,14.40
2019-05-21T00:52:10.624Z,14.40
2019-05-21T00:54:41.073Z,14.40
2019-05-21T00:57:13.674Z,14.40
2019-05-21T00:59:44.152Z,14.40
2019-05-21T01:02:14.892Z,14.50
2019-05-21T01:04:59.763Z,14.60
2019-05-21T01:07:17.754Z,14.60
2019-05-21T01:09:48.218Z,14.60
2019-05-21T01:12:18.784Z,14.60
2019-05-21T01:14:49.363Z,14.70
2019-05-21T01:17:19.805Z,14.70
2019-05-21T01:19:50.441Z,14.70
2019-05-21T01:22:20.966Z,14.80
2019-05-21T01:24:51.412Z,14.80
2019-05-21T01:27:22.037Z,14.90
2019-05-21T01:29:52.581Z,14.90
2019-05-21T01:32:23.018Z,14.90
2019-05-21T01:34:53.498Z,14.80
2019-05-21T01:37:23.948Z,14.70
2019-05-21T01:39:54.605Z,14.80
2019-05-21T01:42:25.096Z,14.60
2019-05-21T01:44:55.565Z,14.70
2019-05-21T01:47:26.136Z,14.80
2019-05-21T01:49:56.733Z,14.70
2019-05-21T01:52:27.154Z,14.70
2019-05-21T01:54:57.820Z,14.70
2019-05-21T01:57:28.229Z,14.70
2019-05-21T01:59:59.484Z,14.60
2019-05-21T02:02:29.931Z,14.60
2019-05-21T02:05:00.404Z,14.60
2019-05-21T02:07:31.036Z,14.60
2019-05-21T02:10:01.844Z,14.60
2019-05-21T02:12:32.632Z,14.70
2019-05-21T02:15:03.084Z,14.60
2019-05-21T02:17:33.546Z,14.60
2019-05-21T02:20:04.006Z,14.50
2019-05-21T02:22:34.560Z,14.40
2019-05-21T02:25:06.195Z,14.40
2019-05-21T02:27:36.628Z,14.40
2019-05-21T02:30:10.030Z,14.30
2019-05-21T02:32:40.591Z,14.40
2019-05-21T02:35:11.253Z,14.30
2019-05-21T02:37:41.892Z,14.30
2019-05-21T02:40:13.160Z,14.20
2019-05-21T02:42:43.999Z,14.10
2019-05-21T02:45:15.068Z,14.20
2019-05-21T02:47:45.913Z,14.20
2019-05-21T02:50:16.663Z,14.10
2019-05-21T02:52:47.189Z,14.00
2019-05-21T02:55:18.301Z,14.00
2019-05-21T02:57:48.763Z,14.00
2019-05-21T03:00:49.761Z,13.90
2019-05-21T03:03:22.605Z,13.90
2019-05-21T03:06:10.434Z,13.90
2019-05-21T03:08:25.268Z,14.00
2019-05-21T03:10:55.693Z,14.00
2019-05-21T03:13:26.242Z,14.00
2019-05-21T03:15:56.661Z,13.90
2019-05-21T03:18:27.143Z,13.80
2019-05-21T03:20:58.215Z,13.90
2019-05-21T03:23:28.693Z,13.90
2019-05-21T03:25:59.136Z,13.80
2019-05-21T03:28:29.579Z,13.80
2019-05-21T03:31:00.049Z,13.80
2019-05-21T03:33:30.534Z,13.80
2019-05-21T03:36:01.124Z,13.80
2019-05-21T03:38:31.536Z,13.80
2019-05-21T03:41:02.008Z,13.70
2019-05-21T03:43:32.467Z,13.70
2019-05-21T03:46:03.045Z,13.80
2019-05-21T03:48:33.458Z,13.90
2019-05-21T03:51:03.897Z,13.80
2019-05-21T03:53:34.340Z,13.90
2019-05-21T03:56:04.830Z,13.80
2019-05-21T03:58:35.581Z,13.70
2019-05-21T04:01:06.144Z,13.60
2019-05-21T04:03:36.597Z,13.60
2019-05-21T04:06:07.115Z,13.60
2019-05-21T04:08:37.518Z,13.60
2019-05-21T04:11:08.084Z,13.50
2019-05-21T04:13:38.633Z,13.60
2019-05-21T04:16:19.206Z,13.50
2019-05-21T04:19:11.533Z,13.40
2019-05-21T04:21:42.296Z,13.50
2019-05-21T04:24:12.767Z,13.50
2019-05-21T04:26:43.427Z,13.40
2019-05-21T04:29:14.076Z,13.40
2019-05-21T04:31:44.672Z,13.50
2019-05-21T04:34:15.180Z,13.50
2019-05-21T04:36:45.753Z,13.50
2019-05-21T04:39:16.294Z,13.40
2019-05-21T04:41:46.853Z,13.40
2019-05-21T04:44:17.401Z,13.30
2019-05-21T04:46:47.820Z,13.40
2019-05-21T04:49:18.282Z,13.40
2019-05-21T04:51:48.910Z,13.30
2019-05-21T04:54:19.423Z,13.30
2019-05-21T04:56:49.914Z,13.40
2019-05-21T04:59:20.473Z,13.30
2019-05-21T05:01:51.106Z,13.40
2019-05-21T05:04:23.468Z,13.40
2019-05-21T05:06:54.040Z,13.40
2019-05-21T05:09:24.562Z,13.40
2019-05-21T05:11:55.325Z,13.30
2019-05-21T05:14:25.841Z,13.40
2019-05-21T05:16:56.427Z,13.50
2019-05-21T05:19:27.016Z,13.70
2019-05-21T05:21:57.563Z,13.80
2019-05-21T05:24:28.031Z,13.90
2019-05-21T05:26:58.530Z,13.90
2019-05-21T05:29:29.137Z,13.90
2019-05-21T05:31:59.943Z,13.80
2019-05-21T05:34:30.347Z,13.70
2019-05-21T05:37:00.827Z,13.60
2019-05-21T05:39:31.230Z,13.60
2019-05-21T05:42:02.028Z,13.60
2019-05-21T05:44:32.559Z,13.60
2019-05-21T05:47:03.316Z,13.60
2019-05-21T05:49:38.864Z,13.60
2019-05-21T05:52:09.365Z,13.60
2019-05-21T05:54:39.829Z,13.60
2019-05-21T05:57:10.320Z,13.60
2019-05-21T05:59:40.808Z,13.60
2019-05-21T06:02:11.290Z,13.60
2019-05-21T06:04:41.716Z,13.60
2019-05-21T06:07:12.307Z,13.60
2019-05-21T06:09:42.779Z,13.70
2019-05-21T06:12:13.313Z,13.70
2019-05-21T06:14:43.774Z,13.60
2019-05-21T06:17:14.229Z,13.60
2019-05-21T06:19:44.968Z,13.60
2019-05-21T06:22:15.464Z,13.50
2019-05-21T06:24:45.925Z,13.50
2019-05-21T06:27:16.495Z,13.50
2019-05-21T06:29:47.018Z,13.60
2019-05-21T06:32:17.526Z,13.60
2019-05-21T06:34:48.785Z,13.60
2019-05-21T06:37:19.667Z,13.70
2019-05-21T06:39:50.212Z,13.70
2019-05-21T06:42:20.683Z,13.80
2019-05-21T06:44:51.127Z,13.90
2019-05-21T06:47:21.844Z,13.80
2019-05-21T06:49:52.285Z,13.90
2019-05-21T06:52:22.915Z,13.90
2019-05-21T06:54:53.372Z,13.80
2019-05-21T06:57:23.910Z,13.90
2019-05-21T06:59:54.399Z,14.00
2019-05-21T07:02:24.975Z,14.00
2019-05-21T07:04:55.778Z,14.10
2019-05-21T07:07:26.251Z,14.10
2019-05-21T07:09:56.677Z,14.10
2019-05-21T07:12:27.216Z,14.10
2019-05-21T07:14:57.689Z,14.20
2019-05-21T07:17:28.142Z,14.10
2019-05-21T07:19:58.608Z,14.20
2019-05-21T07:22:29.117Z,14.10
2019-05-21T07:24:59.529Z,14.10
2019-05-21T07:27:30.022Z,14.10
2019-05-21T07:30:00.512Z,14.20
2019-05-21T07:32:31.024Z,14.30
2019-05-21T07:35:01.667Z,14.40
2019-05-21T07:37:32.247Z,14.40
2019-05-21T07:40:02.706Z,14.40
2019-05-21T07:42:33.355Z,14.50
2019-05-21T07:45:03.890Z,14.50
2019-05-21T07:47:34.334Z,14.60
2019-05-21T07:50:05.620Z,14.60
2019-05-21T07:52:36.067Z,14.60
2019-05-21T07:55:06.752Z,14.50
2019-05-21T07:57:37.229Z,14.50
2019-05-21T08:00:09.377Z,14.60
2019-05-21T08:02:40.325Z,14.60
2019-05-21T08:05:11.177Z,14.50
2019-05-21T08:07:41.816Z,14.50
2019-05-21T08:10:12.657Z,14.60
2019-05-21T08:12:43.149Z,14.60
2019-05-21T08:15:14.237Z,14.60
2019-05-21T08:17:44.999Z,14.60
2019-05-21T08:20:16.216Z,14.70
2019-05-21T08:22:46.912Z,14.70
2019-05-21T08:25:17.717Z,14.80
2019-05-21T08:27:48.195Z,14.80
2019-05-21T08:30:19.415Z,14.80
2019-05-21T08:32:50.115Z,14.80
2019-05-21T08:35:20.587Z,14.60
2019-05-21T08:37:51.082Z,14.60
2019-05-21T08:40:21.507Z,14.60
2019-05-21T08:42:52.338Z,14.60
2019-05-21T08:45:22.990Z,14.60
2019-05-21T08:47:53.406Z,14.50
2019-05-21T08:50:24.021Z,14.50
2019-05-21T08:52:54.428Z,14.60
2019-05-21T08:55:25.006Z,14.60
2019-05-21T08:58:06.618Z,14.50
2019-05-21T09:00:28.149Z,14.40
2019-05-21T09:02:58.702Z,14.30
2019-05-21T09:05:29.198Z,14.20
2019-05-21T09:07:59.622Z,14.10
2019-05-21T09:10:30.102Z,14.10
2019-05-21T09:13:00.545Z,14.00
2019-05-21T09:15:31.006Z,14.10
2019-05-21T09:18:01.647Z,14.00
2019-05-21T09:20:32.115Z,14.00
2019-05-21T09:23:02.577Z,13.90
2019-05-21T09:25:33.038Z,14.00
2019-05-21T09:28:03.617Z,14.00
2019-05-21T09:30:34.183Z,13.90
2019-05-21T09:33:04.675Z,14.00
2019-05-21T09:35:35.280Z,14.00
2019-05-21T09:38:05.927Z,14.10
2019-05-21T09:40:36.672Z,14.10
2019-05-21T09:43:07.147Z,14.20
2019-05-21T09:45:37.656Z,14.30
2019-05-21T09:48:08.113Z,14.40
2019-05-21T09:50:38.578Z,14.40
2019-05-21T09:53:08.993Z,14.50
2019-05-21T09:55:39.457Z,14.60
2019-05-21T09:58:35.195Z,14.60
2019-05-21T10:01:18.563Z,14.70
2019-05-21T10:03:54.561Z,14.60
2019-05-21T10:06:25.146Z,14.70
2019-05-21T10:08:55.637Z,14.70
2019-05-21T10:11:26.160Z,14.80
2019-05-21T10:13:56.778Z,14.70
2019-05-21T10:16:27.707Z,14.70
2019-05-21T10:18:58.209Z,14.80
2019-05-21T10:21:28.848Z,14.90
2019-05-21T10:23:59.258Z,14.80
2019-05-21T10:26:29.697Z,14.90
2019-05-21T10:29:00.165Z,14.90
2019-05-21T10:31:30.853Z,15.00
2019-05-21T10:34:01.523Z,15.10
2019-05-21T10:36:31.956Z,15.20
2019-05-21T10:39:04.249Z,15.40
2019-05-21T10:41:34.796Z,15.50
2019-05-21T10:44:05.925Z,15.60
2019-05-21T10:46:36.690Z,15.70
2019-05-21T10:49:07.592Z,15.70
2019-05-21T10:51:38.041Z,15.90
2019-05-21T10:54:08.612Z,15.90
2019-05-21T10:56:47.743Z,16.00
2019-05-21T10:59:11.366Z,16.00
2019-05-21T11:01:59.563Z,15.90
2019-05-21T11:04:53.691Z,15.80
2019-05-21T11:07:24.403Z,15.80
2019-05-21T11:09:55.186Z,15.60
2019-05-21T11:12:26.065Z,15.70
2019-05-21T11:14:56.583Z,15.70
2019-05-21T11:17:27.021Z,15.70
2019-05-21T11:19:57.443Z,15.70
2019-05-21T11:22:28.150Z,15.70
2019-05-21T11:24:58.755Z,15.70
2019-05-21T11:27:29.232Z,15.50
2019-05-21T11:29:59.805Z,15.40
2019-05-21T11:32:30.367Z,15.40
2019-05-21T11:35:00.792Z,15.40
2019-05-21T11:37:31.591Z,15.20
2019-05-21T11:40:02.020Z,15.30
2019-05-21T11:42:32.753Z,15.20
2019-05-21T11:45:03.156Z,15.20
2019-05-21T11:47:33.658Z,15.10
2019-05-21T11:50:04.919Z,15.00
2019-05-21T11:52:35.449Z,15.00
2019-05-21T11:55:06.530Z,15.00
2019-05-21T11:57:37.329Z,15.10
2019-05-21T12:00:08.275Z,15.10
2019-05-21T12:02:38.930Z,15.10
2019-05-21T12:05:10.400Z,15.20
2019-05-21T12:07:40.860Z,15.20
2019-05-21T12:10:11.515Z,15.30
2019-05-21T12:12:42.544Z,15.40
2019-05-21T12:15:13.330Z,15.40
2019-05-21T12:17:43.804Z,15.60
2019-05-21T12:20:16.639Z,15.70
2019-05-21T12:22:47.058Z,15.70
2019-05-21T12:25:17.575Z,15.80
2019-05-21T12:27:48.037Z,15.80
2019-05-21T12:30:18.961Z,15.70
2019-05-21T12:32:49.536Z,15.60
2019-05-21T12:35:20.231Z,15.70
2019-05-21T12:37:50.653Z,15.80
2019-05-21T12:40:21.306Z,15.80
2019-05-21T12:42:51.718Z,15.80
2019-05-21T12:45:22.407Z,15.70
2019-05-21T12:47:52.913Z,15.90
2019-05-21T12:50:23.637Z,15.80
2019-05-21T12:52:54.066Z,15.90
2019-05-21T12:55:24.544Z,15.90
2019-05-21T12:57:55.023Z,16.00
2019-05-21T13:00:30.786Z,15.90
2019-05-21T13:03:01.353Z,15.90
2019-05-21T13:05:31.820Z,15.70
2019-05-21T13:08:02.528Z,15.50
2019-05-21T13:10:33.013Z,15.30
2019-05-21T13:13:03.535Z,15.30
2019-05-21T13:15:33.937Z,15.20
2019-05-21T13:18:04.422Z,15.00
2019-05-21T13:20:34.893Z,14.90
2019-05-21T13:23:05.558Z,14.80
2019-05-21T13:25:37.192Z,14.70
2019-05-21T13:28:07.886Z,14.70
2019-05-21T13:30:38.705Z,14.70
2019-05-21T13:33:09.185Z,14.60
2019-05-21T13:35:39.710Z,14.60
2019-05-21T13:38:13.517Z,14.50
2019-05-21T13:40:42.796Z,14.60
2019-05-21T13:43:13.498Z,14.50
2019-05-21T13:45:44.162Z,14.50
2019-05-21T13:48:14.617Z,14.50
2019-05-21T13:50:45.106Z,14.60
2019-05-21T13:53:15.544Z,14.60
2019-05-21T13:55:46.612Z,14.80
2019-05-21T13:58:17.282Z,14.70
2019-05-21T14:00:50.493Z,14.60
2019-05-21T14:03:20.992Z,14.60
2019-05-21T14:05:51.512Z,14.60
2019-05-21T14:08:22.001Z,14.70
2019-05-21T14:10:52.631Z,14.80
2019-05-21T14:13:23.290Z,14.60
2019-05-21T14:15:53.833Z,14.60
2019-05-21T14:18:24.620Z,14.70
2019-05-21T14:20:55.119Z,14.60
2019-05-21T14:23:25.604Z,14.60
2019-05-21T14:25:56.048Z,14.60
2019-05-21T14:28:26.677Z,14.70
2019-05-21T14:30:57.186Z,14.80
2019-05-21T14:33:27.813Z,14.80
2019-05-21T14:35:58.220Z,14.90
2019-05-21T14:38:28.734Z,14.90
2019-05-21T14:40:59.298Z,15.00
2019-05-21T14:43:29.773Z,15.00
2019-05-21T14:46:00.230Z,15.10
2019-05-21T14:48:30.763Z,15.10
2019-05-21T14:51:01.208Z,15.20
2019-05-21T14:53:31.884Z,15.20
2019-05-21T14:56:02.402Z,15.40
2019-05-21T14:58:32.874Z,15.40
2019-05-21T15:01:03.416Z,15.30
2019-05-21T15:03:34.002Z,15.40
2019-05-21T15:06:04.576Z,15.50
2019-05-21T15:08:35.024Z,15.60
2019-05-21T15:11:05.549Z,15.50
2019-05-21T15:13:36.046Z,15.60
2019-05-21T15:16:06.745Z,15.80
2019-05-21T15:18:37.341Z,15.80
2019-05-21T15:21:19.632Z,15.90
2019-05-21T15:23:50.232Z,15.80
2019-05-21T15:26:24.166Z,16.00
2019-05-21T15:28:54.886Z,16.10
2019-05-21T15:31:25.525Z,16.00
2019-05-21T15:33:56.299Z,16.00
2019-05-21T15:36:26.760Z,16.00
2019-05-21T15:38:57.553Z,16.20
2019-05-21T15:41:30.173Z,16.00
2019-05-21T15:44:01.754Z,15.90
2019-05-21T15:46:47.249Z,15.90
2019-05-21T15:49:06.901Z,15.90
2019-05-21T15:51:37.393Z,15.90
2019-05-21T15:54:07.924Z,15.80
2019-05-21T15:56:38.442Z,15.80
2019-05-21T15:59:09.084Z,15.70
2019-05-21T16:01:40.939Z,15.50
2019-05-21T16:04:15.853Z,15.40
2019-05-21T16:06:44.022Z,15.40
2019-05-21T16:09:14.505Z,15.20
2019-05-21T16:11:44.947Z,15.30
2019-05-21T16:14:15.666Z,15.20
2019-05-21T16:16:46.127Z,15.00
2019-05-21T16:19:16.590Z,14.90
2019-05-21T16:21:47.205Z,14.90
2019-05-21T16:24:17.855Z,14.90
2019-05-21T16:26:48.378Z,14.90
2019-05-21T16:29:26.979Z,14.80
2019-05-21T16:31:57.510Z,14.70
2019-05-21T16:34:31.796Z,14.80
2019-05-21T16:37:00.324Z,14.70
2019-05-21T16:39:31.817Z,14.70
2019-05-21T16:42:02.278Z,14.80
2019-05-21T16:44:32.779Z,14.70
2019-05-21T16:47:03.545Z,14.60
2019-05-21T16:49:34.069Z,14.60
2019-05-21T16:52:04.936Z,14.80
2019-05-21T16:54:35.384Z,14.70
2019-05-21T16:57:05.803Z,14.60
2019-05-21T16:59:36.457Z,14.40
2019-05-21T17:02:07.234Z,14.30
2019-05-21T17:04:37.687Z,14.40
2019-05-21T17:07:08.311Z,14.50
2019-05-21T17:09:38.987Z,14.50
2019-05-21T17:12:09.576Z,14.50
2019-05-21T17:14:41.942Z,14.50
2019-05-21T17:17:12.402Z,14.40
2019-05-21T17:19:42.952Z,14.30
2019-05-21T17:22:13.434Z,14.20
2019-05-21T17:24:44.219Z,14.20
2019-05-21T17:27:14.650Z,14.40
2019-05-21T17:29:45.095Z,14.50
2019-05-21T17:32:15.591Z,14.40
2019-05-21T17:34:46.220Z,14.50
2019-05-21T17:37:16.637Z,14.50
2019-05-21T17:39:47.115Z,14.40
2019-05-21T17:42:17.676Z,14.40
2019-05-21T17:44:48.162Z,14.40
2019-05-21T17:47:19.037Z,14.40
2019-05-21T17:49:49.574Z,14.30
2019-05-21T17:52:20.303Z,14.30
2019-05-21T17:54:56.775Z,14.30
2019-05-21T17:57:24.469Z,14.20
2019-05-21T17:59:55.406Z,14.30
2019-05-21T18:02:28.292Z,14.20
2019-05-21T18:05:00.242Z,14.30
2019-05-21T18:07:30.920Z,14.30
2019-05-21T18:10:02.019Z,14.30
2019-05-21T18:12:33.618Z,14.40
2019-05-21T18:15:05.183Z,14.20
2019-05-21T18:17:37.329Z,14.30
2019-05-21T18:20:09.726Z,14.30
2019-05-21T18:22:41.928Z,14.30
2019-05-21T18:25:12.986Z,14.20
2019-05-21T18:27:43.796Z,14.30
2019-05-21T18:30:15.118Z,14.30
2019-05-21T18:32:46.590Z,14.30
2019-05-21T18:35:17.558Z,14.20
2019-05-21T18:37:48.222Z,14.30
2019-05-21T18:40:19.502Z,14.30
2019-05-21T18:42:49.943Z,14.40
2019-05-21T18:45:20.515Z,14.30
2019-05-21T18:47:50.977Z,14.30
2019-05-21T18:50:34.911Z,14.30
2019-05-21T18:52:54.279Z,14.30
2019-05-21T18:55:24.860Z,14.20
2019-05-21T18:57:55.457Z,14.20
2019-05-21T19:00:26.820Z,14.20
2019-05-21T19:02:58.310Z,14.20
2019-05-21T19:05:29.221Z,14.10
2019-05-21T19:08:05.012Z,14.20
2019-05-21T19:10:35.505Z,14.20
2019-05-21T19:13:06.616Z,14.40
2019-05-21T19:15:37.371Z,14.30
2019-05-21T19:18:08.075Z,14.30
2019-05-21T19:20:38.595Z,14.20
2019-05-21T19:23:09.502Z,14.20
2019-05-21T19:25:40.505Z,14.10
2019-05-21T19:28:11.727Z,14.10
2019-05-21T19:30:42.362Z,14.10
2019-05-21T19:33:12.870Z,14.10
2019-05-21T19:35:43.753Z,14.20
2019-05-21T19:38:14.319Z,14.20
2019-05-21T19:40:44.846Z,14.10
2019-05-21T19:43:15.664Z,14.00
2019-05-21T19:45:46.100Z,14.00
2019-05-21T19:48:16.996Z,14.00
2019-05-21T19:50:47.491Z,13.90
2019-05-21T19:53:18.099Z,13.90
2019-05-21T19:55:48.629Z,13.70
2019-05-21T19:58:19.466Z,13.70
2019-05-21T20:00:55.024Z,13.80
2019-05-21T20:03:26.351Z,13.80
2019-05-21T20:05:58.694Z,13.90
2019-05-21T20:08:29.608Z,13.90
2019-05-21T20:11:00.613Z,14.00
2019-05-21T20:13:32.894Z,14.10
2019-05-21T20:16:04.872Z,14.00
2019-05-21T20:18:35.571Z,14.10
2019-05-21T20:21:08.158Z,14.10
2019-05-21T20:23:39.956Z,14.20
2019-05-21T20:26:15.359Z,14.20
2019-05-21T20:28:46.418Z,14.30
2019-05-21T20:31:17.515Z,14.30
2019-05-21T20:33:50.033Z,14.30
2019-05-21T20:36:21.426Z,14.30
2019-05-21T20:38:52.735Z,14.30
2019-05-21T20:41:24.873Z,14.20
2019-05-21T20:43:59.123Z,14.20
2019-05-21T20:46:28.584Z,14.30
2019-05-21T20:48:59.443Z,14.40
2019-05-21T20:51:31.266Z,14.20
2019-05-21T20:54:02.408Z,14.20
2019-05-21T20:56:33.922Z,14.20
2019-05-21T20:59:04.879Z,14.20
2019-05-21T21:01:36.331Z,14.20
2019-05-21T21:04:07.414Z,14.20
2019-05-21T21:06:37.927Z,14.20
2019-05-21T21:09:12.390Z,14.20
2019-05-21T21:11:43.631Z,14.20
2019-05-21T21:14:18.264Z,14.30
2019-05-21T21:16:48.798Z,14.20
2019-05-21T21:19:19.289Z,14.20
2019-05-21T21:21:50.170Z,14.20
2019-05-21T21:24:20.750Z,14.20
2019-05-21T21:26:51.838Z,14.30
2019-05-21T21:29:22.257Z,14.30
2019-05-21T21:31:52.913Z,14.30
2019-05-21T21:34:23.453Z,14.30
2019-05-21T21:36:53.959Z,14.30
2019-05-21T21:39:24.520Z,14.10
2019-05-21T21:41:55.251Z,14.10
2019-05-21T21:44:34.243Z,14.10
2019-05-21T21:46:59.006Z,14.20
2019-05-21T21:49:31.249Z,14.20
2019-05-21T21:52:02.885Z,14.20
2019-05-21T21:54:33.544Z,14.10
2019-05-21T21:57:04.018Z,14.10
2019-05-21T21:59:34.682Z,14.10
2019-05-21T22:02:19.223Z,14.00
2019-05-21T22:04:50.751Z,14.00
2019-05-21T22:07:22.781Z,14.10
2019-05-21T22:09:53.556Z,14.10
2019-05-21T22:12:26.856Z,14.00
2019-05-21T22:15:02.159Z,13.80
2019-05-21T22:17:33.074Z,13.90
2019-05-21T22:20:04.344Z,13.80
2019-05-21T22:22:34.808Z,13.90
2019-05-21T22:25:06.015Z,13.90
2019-05-21T22:27:36.796Z,13.80
2019-05-21T22:30:08.945Z,13.70
2019-05-21T22:32:39.700Z,13.80
2019-05-21T22:35:10.423Z,13.90
2019-05-21T22:37:41.447Z,13.80
2019-05-21T22:40:11.992Z,13.70
2019-05-21T22:42:42.753Z,13.70
2019-05-21T22:45:13.476Z,13.70
2019-05-21T22:47:43.932Z,13.80
2019-05-21T22:50:14.650Z,13.80
2019-05-21T22:52:45.181Z,13.90
2019-05-21T22:55:15.667Z,14.00
2019-05-21T22:57:46.119Z,14.00
2019-05-21T23:00:16.847Z,13.90
2019-05-21T23:02:47.943Z,14.00
2019-05-21T23:05:18.422Z,14.10
2019-05-21T23:07:49.018Z,14.20
2019-05-21T23:10:19.558Z,14.10
2019-05-21T23:12:50.157Z,14.10
2019-05-21T23:15:25.552Z,14.10
2019-05-21T23:17:53.445Z,14.10
2019-05-21T23:20:27.992Z,14.20
2019-05-21T23:22:58.834Z,14.10
2019-05-21T23:25:30.453Z,14.20
2019-05-21T23:28:01.071Z,14.20
2019-05-21T23:30:32.118Z,14.20
2019-05-21T23:33:04.402Z,14.10
2019-05-21T23:35:35.360Z,14.20
2019-05-21T23:38:06.014Z,14.30
2019-05-21T23:40:36.652Z,14.20
2019-05-21T23:43:08.505Z,14.20
2019-05-21T23:45:39.142Z,14.20
2019-05-21T23:48:12.217Z,14.20
2019-05-21T23:50:42.987Z,14.20
2019-05-21T23:53:13.426Z,14.20
2019-05-21T23:55:44.199Z,14.10
2019-05-21T23:58:15.276Z,14.10
